sensor_id;sensor_type;location;lat;lon;timestamp;P1;durP1;ratioP1;P2;durP2;ratioP2
19482;SDS011;9882;51.166;6.992;2023-11-19T00:00:28;2.67;;;2.13;;
19482;SDS011;9882;51.166;6.992;2023-11-19T00:02:56;4.18;;;2.15;;
19482;SDS011;9882;51.166;6.992;2023-11-19T00:05:27;3.20;;;2.45;;
19482;SDS011;9882;51.166;6.992;2023-11-19T00:07:56;2.33;;;2.00;;
19482;SDS011;9882;51.166;6.992;2023-11-19T00:10:26;1.80;;;1.70;;
19482;SDS011;9882;51.166;6.992;2023-11-19T00:12:55;3.03;;;2.28;;
19482;SDS011;9882;51.166;6.992;2023-11-19T00:15:24;2.03;;;1.88;;
19482;SDS011;9882;51.166;6.992;2023-11-19T00:17:53;2.75;;;2.10;;
19482;SDS011;9882;51.166;6.992;2023-11-19T00:20:23;2.45;;;2.08;;
19482;SDS011;9882;51.166;6.992;2023-11-19T00:22:53;2.05;;;1.85;;
19482;SDS011;9882;51.166;6.992;2023-11-19T00:25:22;2.47;;;2.08;;
19482;SDS011;9882;51.166;6.992;2023-11-19T00:27:52;3.30;;;2.08;;
19482;SDS011;9882;51.166;6.992;2023-11-19T00:30:23;2.70;;;1.92;;
19482;SDS011;9882;51.166;6.992;2023-11-19T00:32:53;3.03;;;2.10;;
19482;SDS011;9882;51.166;6.992;2023-11-19T00:35:21;4.60;;;2.35;;
19482;SDS011;9882;51.166;6.992;2023-11-19T00:37:50;4.35;;;2.08;;
19482;SDS011;9882;51.166;6.992;2023-11-19T00:40:23;2.45;;;2.20;;
19482;SDS011;9882;51.166;6.992;2023-11-19T00:42:52;2.35;;;2.15;;
19482;SDS011;9882;51.166;6.992;2023-11-19T00:45:21;3.17;;;2.15;;
19482;SDS011;9882;51.166;6.992;2023-11-19T00:47:50;5.38;;;2.20;;
19482;SDS011;9882;51.166;6.992;2023-11-19T00:50:19;1.95;;;1.85;;
19482;SDS011;9882;51.166;6.992;2023-11-19T00:52:50;3.10;;;2.15;;
19482;SDS011;9882;51.166;6.992;2023-11-19T00:55:19;2.95;;;2.10;;
19482;SDS011;9882;51.166;6.992;2023-11-19T00:57:49;2.42;;;2.15;;
19482;SDS011;9882;51.166;6.992;2023-11-19T01:00:18;2.15;;;2.00;;
19482;SDS011;9882;51.166;6.992;2023-11-19T01:02:50;3.60;;;2.03;;
19482;SDS011;9882;51.166;6.992;2023-11-19T01:05:19;3.80;;;2.17;;
19482;SDS011;9882;51.166;6.992;2023-11-19T01:07:50;3.15;;;2.20;;
19482;SDS011;9882;51.166;6.992;2023-11-19T01:10:20;2.78;;;2.03;;
19482;SDS011;9882;51.166;6.992;2023-11-19T01:12:51;9.43;;;2.72;;
19482;SDS011;9882;51.166;6.992;2023-11-19T01:15:20;3.50;;;2.05;;
19482;SDS011;9882;51.166;6.992;2023-11-19T01:17:50;3.22;;;2.22;;
19482;SDS011;9882;51.166;6.992;2023-11-19T01:20:19;5.22;;;2.47;;
19482;SDS011;9882;51.166;6.992;2023-11-19T01:22:49;2.42;;;2.20;;
19482;SDS011;9882;51.166;6.992;2023-11-19T01:25:18;6.88;;;2.45;;
19482;SDS011;9882;51.166;6.992;2023-11-19T01:27:47;3.55;;;2.25;;
19482;SDS011;9882;51.166;6.992;2023-11-19T01:30:18;5.85;;;2.70;;
19482;SDS011;9882;51.166;6.992;2023-11-19T01:32:49;5.03;;;2.60;;
19482;SDS011;9882;51.166;6.992;2023-11-19T01:35:18;6.13;;;2.60;;
19482;SDS011;9882;51.166;6.992;2023-11-19T01:37:47;2.67;;;2.22;;
19482;SDS011;9882;51.166;6.992;2023-11-19T01:40:19;5.60;;;2.70;;
19482;SDS011;9882;51.166;6.992;2023-11-19T01:42:49;3.13;;;2.40;;
19482;SDS011;9882;51.166;6.992;2023-11-19T01:45:26;4.80;;;2.35;;
19482;SDS011;9882;51.166;6.992;2023-11-19T01:47:58;4.13;;;2.40;;
19482;SDS011;9882;51.166;6.992;2023-11-19T01:50:30;8.00;;;2.65;;
19482;SDS011;9882;51.166;6.992;2023-11-19T01:53:01;4.82;;;2.20;;
19482;SDS011;9882;51.166;6.992;2023-11-19T01:55:30;4.07;;;2.38;;
19482;SDS011;9882;51.166;6.992;2023-11-19T01:58:02;4.45;;;2.20;;
19482;SDS011;9882;51.166;6.992;2023-11-19T02:00:33;5.07;;;2.00;;
19482;SDS011;9882;51.166;6.992;2023-11-19T02:03:01;2.15;;;1.80;;
19482;SDS011;9882;51.166;6.992;2023-11-19T02:05:33;6.57;;;2.28;;
19482;SDS011;9882;51.166;6.992;2023-11-19T02:08:03;5.43;;;2.10;;
19482;SDS011;9882;51.166;6.992;2023-11-19T02:10:32;3.65;;;2.15;;
19482;SDS011;9882;51.166;6.992;2023-11-19T02:13:01;2.40;;;1.85;;
19482;SDS011;9882;51.166;6.992;2023-11-19T02:15:33;4.28;;;1.90;;
19482;SDS011;9882;51.166;6.992;2023-11-19T02:18:20;4.50;;;2.03;;
19482;SDS011;9882;51.166;6.992;2023-11-19T02:20:50;7.75;;;2.20;;
19482;SDS011;9882;51.166;6.992;2023-11-19T02:23:20;7.45;;;2.25;;
19482;SDS011;9882;51.166;6.992;2023-11-19T02:26:00;13.35;;;2.10;;
19482;SDS011;9882;51.166;6.992;2023-11-19T02:28:36;6.13;;;2.13;;
19482;SDS011;9882;51.166;6.992;2023-11-19T02:31:05;5.00;;;2.10;;
19482;SDS011;9882;51.166;6.992;2023-11-19T02:33:36;3.40;;;2.25;;
19482;SDS011;9882;51.166;6.992;2023-11-19T02:36:06;5.00;;;2.40;;
19482;SDS011;9882;51.166;6.992;2023-11-19T02:38:36;6.43;;;2.67;;
19482;SDS011;9882;51.166;6.992;2023-11-19T02:41:05;8.38;;;2.17;;
19482;SDS011;9882;51.166;6.992;2023-11-19T02:43:38;12.68;;;2.70;;
19482;SDS011;9882;51.166;6.992;2023-11-19T02:46:07;8.68;;;2.75;;
19482;SDS011;9882;51.166;6.992;2023-11-19T02:48:39;8.75;;;2.25;;
19482;SDS011;9882;51.166;6.992;2023-11-19T02:51:08;12.07;;;2.85;;
19482;SDS011;9882;51.166;6.992;2023-11-19T02:53:37;6.30;;;2.38;;
19482;SDS011;9882;51.166;6.992;2023-11-19T02:56:08;11.93;;;2.65;;
19482;SDS011;9882;51.166;6.992;2023-11-19T02:58:48;7.30;;;2.60;;
19482;SDS011;9882;51.166;6.992;2023-11-19T03:01:21;9.93;;;2.97;;
19482;SDS011;9882;51.166;6.992;2023-11-19T03:03:57;13.50;;;3.15;;
19482;SDS011;9882;51.166;6.992;2023-11-19T03:06:28;7.40;;;2.28;;
19482;SDS011;9882;51.166;6.992;2023-11-19T03:08:57;6.50;;;2.47;;
19482;SDS011;9882;51.166;6.992;2023-11-19T03:11:32;7.57;;;2.88;;
19482;SDS011;9882;51.166;6.992;2023-11-19T03:14:03;13.45;;;3.25;;
19482;SDS011;9882;51.166;6.992;2023-11-19T03:16:33;12.18;;;3.58;;
19482;SDS011;9882;51.166;6.992;2023-11-19T03:19:01;11.90;;;3.15;;
19482;SDS011;9882;51.166;6.992;2023-11-19T03:21:32;15.48;;;3.45;;
19482;SDS011;9882;51.166;6.992;2023-11-19T03:24:01;11.57;;;3.53;;
19482;SDS011;9882;51.166;6.992;2023-11-19T03:26:30;11.75;;;3.05;;
19482;SDS011;9882;51.166;6.992;2023-11-19T03:29:00;10.93;;;3.20;;
19482;SDS011;9882;51.166;6.992;2023-11-19T03:31:31;19.92;;;2.80;;
19482;SDS011;9882;51.166;6.992;2023-11-19T03:33:59;18.23;;;3.67;;
19482;SDS011;9882;51.166;6.992;2023-11-19T03:36:33;14.63;;;3.35;;
19482;SDS011;9882;51.166;6.992;2023-11-19T03:39:02;14.73;;;3.33;;
19482;SDS011;9882;51.166;6.992;2023-11-19T03:41:31;13.98;;;3.22;;
19482;SDS011;9882;51.166;6.992;2023-11-19T03:44:03;13.88;;;3.45;;
19482;SDS011;9882;51.166;6.992;2023-11-19T03:46:34;6.28;;;2.65;;
19482;SDS011;9882;51.166;6.992;2023-11-19T03:49:03;11.45;;;3.08;;
19482;SDS011;9882;51.166;6.992;2023-11-19T03:51:34;9.98;;;3.17;;
19482;SDS011;9882;51.166;6.992;2023-11-19T03:54:03;15.32;;;3.35;;
19482;SDS011;9882;51.166;6.992;2023-11-19T03:56:33;20.52;;;3.72;;
19482;SDS011;9882;51.166;6.992;2023-11-19T03:59:02;8.40;;;2.95;;
19482;SDS011;9882;51.166;6.992;2023-11-19T04:01:31;9.60;;;3.13;;
19482;SDS011;9882;51.166;6.992;2023-11-19T04:04:01;18.98;;;3.95;;
19482;SDS011;9882;51.166;6.992;2023-11-19T04:06:30;14.77;;;3.13;;
19482;SDS011;9882;51.166;6.992;2023-11-19T04:08:59;8.60;;;3.53;;
19482;SDS011;9882;51.166;6.992;2023-11-19T04:11:28;14.68;;;3.92;;
19482;SDS011;9882;51.166;6.992;2023-11-19T04:13:57;16.55;;;4.10;;
19482;SDS011;9882;51.166;6.992;2023-11-19T04:16:26;22.02;;;4.05;;
19482;SDS011;9882;51.166;6.992;2023-11-19T04:18:58;12.70;;;3.65;;
19482;SDS011;9882;51.166;6.992;2023-11-19T04:21:29;15.43;;;3.55;;
19482;SDS011;9882;51.166;6.992;2023-11-19T04:23:58;14.45;;;3.40;;
19482;SDS011;9882;51.166;6.992;2023-11-19T04:26:27;11.23;;;3.63;;
19482;SDS011;9882;51.166;6.992;2023-11-19T04:28:58;18.98;;;3.90;;
19482;SDS011;9882;51.166;6.992;2023-11-19T04:31:28;16.55;;;3.90;;
19482;SDS011;9882;51.166;6.992;2023-11-19T04:33:58;19.75;;;3.67;;
19482;SDS011;9882;51.166;6.992;2023-11-19T04:36:28;20.33;;;3.97;;
19482;SDS011;9882;51.166;6.992;2023-11-19T04:38:58;10.73;;;3.72;;
19482;SDS011;9882;51.166;6.992;2023-11-19T04:41:27;14.55;;;3.53;;
19482;SDS011;9882;51.166;6.992;2023-11-19T04:43:56;16.23;;;3.70;;
19482;SDS011;9882;51.166;6.992;2023-11-19T04:46:26;14.77;;;3.70;;
19482;SDS011;9882;51.166;6.992;2023-11-19T04:48:55;9.45;;;3.25;;
19482;SDS011;9882;51.166;6.992;2023-11-19T04:51:24;33.67;;;4.60;;
19482;SDS011;9882;51.166;6.992;2023-11-19T04:53:55;20.20;;;4.00;;
19482;SDS011;9882;51.166;6.992;2023-11-19T04:56:24;16.88;;;3.88;;
19482;SDS011;9882;51.166;6.992;2023-11-19T04:58:53;22.13;;;3.35;;
19482;SDS011;9882;51.166;6.992;2023-11-19T05:01:22;22.80;;;3.97;;
19482;SDS011;9882;51.166;6.992;2023-11-19T05:03:51;16.90;;;3.60;;
19482;SDS011;9882;51.166;6.992;2023-11-19T05:06:20;16.42;;;3.55;;
19482;SDS011;9882;51.166;6.992;2023-11-19T05:08:49;30.58;;;4.70;;
19482;SDS011;9882;51.166;6.992;2023-11-19T05:11:20;19.48;;;3.95;;
19482;SDS011;9882;51.166;6.992;2023-11-19T05:13:49;18.80;;;4.05;;
19482;SDS011;9882;51.166;6.992;2023-11-19T05:16:18;24.40;;;3.97;;
19482;SDS011;9882;51.166;6.992;2023-11-19T05:18:48;24.85;;;4.55;;
19482;SDS011;9882;51.166;6.992;2023-11-19T05:21:17;16.13;;;3.53;;
19482;SDS011;9882;51.166;6.992;2023-11-19T05:23:46;12.02;;;3.33;;
19482;SDS011;9882;51.166;6.992;2023-11-19T05:26:20;20.27;;;4.80;;
19482;SDS011;9882;51.166;6.992;2023-11-19T05:28:50;16.48;;;3.95;;
19482;SDS011;9882;51.166;6.992;2023-11-19T05:31:19;13.77;;;3.53;;
19482;SDS011;9882;51.166;6.992;2023-11-19T05:33:48;27.77;;;4.57;;
19482;SDS011;9882;51.166;6.992;2023-11-19T05:36:17;26.42;;;4.63;;
19482;SDS011;9882;51.166;6.992;2023-11-19T05:38:46;21.58;;;4.38;;
19482;SDS011;9882;51.166;6.992;2023-11-19T05:41:15;20.13;;;4.50;;
19482;SDS011;9882;51.166;6.992;2023-11-19T05:43:46;9.77;;;3.30;;
19482;SDS011;9882;51.166;6.992;2023-11-19T05:46:15;18.83;;;3.88;;
19482;SDS011;9882;51.166;6.992;2023-11-19T05:48:45;14.38;;;3.40;;
19482;SDS011;9882;51.166;6.992;2023-11-19T05:51:14;12.63;;;3.67;;
19482;SDS011;9882;51.166;6.992;2023-11-19T05:53:44;10.20;;;3.35;;
19482;SDS011;9882;51.166;6.992;2023-11-19T05:56:14;18.50;;;4.28;;
19482;SDS011;9882;51.166;6.992;2023-11-19T05:58:50;12.95;;;3.67;;
19482;SDS011;9882;51.166;6.992;2023-11-19T06:01:20;17.52;;;3.75;;
19482;SDS011;9882;51.166;6.992;2023-11-19T06:03:50;20.17;;;4.65;;
19482;SDS011;9882;51.166;6.992;2023-11-19T06:06:19;20.35;;;4.13;;
19482;SDS011;9882;51.166;6.992;2023-11-19T06:08:47;12.27;;;3.33;;
19482;SDS011;9882;51.166;6.992;2023-11-19T06:11:17;21.90;;;4.00;;
19482;SDS011;9882;51.166;6.992;2023-11-19T06:13:47;15.90;;;4.13;;
19482;SDS011;9882;51.166;6.992;2023-11-19T06:16:18;20.70;;;4.20;;
19482;SDS011;9882;51.166;6.992;2023-11-19T06:18:47;10.18;;;3.13;;
19482;SDS011;9882;51.166;6.992;2023-11-19T06:21:16;22.20;;;4.28;;
19482;SDS011;9882;51.166;6.992;2023-11-19T06:23:45;17.77;;;4.47;;
19482;SDS011;9882;51.166;6.992;2023-11-19T06:26:14;16.65;;;3.38;;
19482;SDS011;9882;51.166;6.992;2023-11-19T06:28:43;23.60;;;4.93;;
19482;SDS011;9882;51.166;6.992;2023-11-19T06:31:15;22.00;;;4.13;;
19482;SDS011;9882;51.166;6.992;2023-11-19T06:33:44;12.73;;;4.20;;
19482;SDS011;9882;51.166;6.992;2023-11-19T06:36:14;15.77;;;3.97;;
19482;SDS011;9882;51.166;6.992;2023-11-19T06:38:44;24.75;;;5.00;;
19482;SDS011;9882;51.166;6.992;2023-11-19T06:41:13;25.20;;;4.82;;
19482;SDS011;9882;51.166;6.992;2023-11-19T06:43:42;29.67;;;4.72;;
19482;SDS011;9882;51.166;6.992;2023-11-19T06:46:16;21.30;;;4.97;;
19482;SDS011;9882;51.166;6.992;2023-11-19T06:48:48;20.25;;;4.60;;
19482;SDS011;9882;51.166;6.992;2023-11-19T06:51:17;20.60;;;4.30;;
19482;SDS011;9882;51.166;6.992;2023-11-19T06:53:45;23.67;;;3.90;;
19482;SDS011;9882;51.166;6.992;2023-11-19T06:56:18;18.98;;;4.82;;
19482;SDS011;9882;51.166;6.992;2023-11-19T06:58:48;27.75;;;4.68;;
19482;SDS011;9882;51.166;6.992;2023-11-19T07:01:19;21.40;;;4.50;;
19482;SDS011;9882;51.166;6.992;2023-11-19T07:03:48;20.40;;;4.18;;
19482;SDS011;9882;51.166;6.992;2023-11-19T07:06:18;15.75;;;4.32;;
19482;SDS011;9882;51.166;6.992;2023-11-19T07:09:00;16.58;;;3.70;;
19482;SDS011;9882;51.166;6.992;2023-11-19T07:11:37;25.27;;;4.90;;
19482;SDS011;9882;51.166;6.992;2023-11-19T07:14:06;13.70;;;4.18;;
19482;SDS011;9882;51.166;6.992;2023-11-19T07:16:37;20.05;;;5.00;;
19482;SDS011;9882;51.166;6.992;2023-11-19T07:19:06;27.25;;;4.05;;
19482;SDS011;9882;51.166;6.992;2023-11-19T07:21:36;26.95;;;5.30;;
19482;SDS011;9882;51.166;6.992;2023-11-19T07:24:06;13.55;;;3.55;;
19482;SDS011;9882;51.166;6.992;2023-11-19T07:26:35;32.20;;;5.45;;
19482;SDS011;9882;51.166;6.992;2023-11-19T07:29:09;12.80;;;3.90;;
19482;SDS011;9882;51.166;6.992;2023-11-19T07:31:59;27.17;;;4.80;;
19482;SDS011;9882;51.166;6.992;2023-11-19T07:34:29;30.02;;;5.30;;
19482;SDS011;9882;51.166;6.992;2023-11-19T07:36:57;37.65;;;5.38;;
19482;SDS011;9882;51.166;6.992;2023-11-19T07:39:29;27.85;;;4.30;;
19482;SDS011;9882;51.166;6.992;2023-11-19T07:41:58;36.28;;;5.38;;
19482;SDS011;9882;51.166;6.992;2023-11-19T07:44:27;29.38;;;4.60;;
19482;SDS011;9882;51.166;6.992;2023-11-19T07:46:55;17.08;;;4.60;;
19482;SDS011;9882;51.166;6.992;2023-11-19T07:49:26;17.63;;;4.95;;
19482;SDS011;9882;51.166;6.992;2023-11-19T07:51:55;16.92;;;4.32;;
19482;SDS011;9882;51.166;6.992;2023-11-19T07:54:25;17.42;;;4.10;;
19482;SDS011;9882;51.166;6.992;2023-11-19T07:56:54;24.52;;;5.68;;
19482;SDS011;9882;51.166;6.992;2023-11-19T07:59:23;19.98;;;4.68;;
19482;SDS011;9882;51.166;6.992;2023-11-19T08:01:55;24.63;;;4.25;;
19482;SDS011;9882;51.166;6.992;2023-11-19T08:04:28;29.63;;;4.50;;
19482;SDS011;9882;51.166;6.992;2023-11-19T08:06:57;21.27;;;4.60;;
19482;SDS011;9882;51.166;6.992;2023-11-19T08:09:27;18.48;;;3.92;;
19482;SDS011;9882;51.166;6.992;2023-11-19T08:11:56;20.88;;;4.68;;
19482;SDS011;9882;51.166;6.992;2023-11-19T08:14:25;17.05;;;4.28;;
19482;SDS011;9882;51.166;6.992;2023-11-19T08:16:55;29.95;;;5.30;;
19482;SDS011;9882;51.166;6.992;2023-11-19T08:19:24;23.23;;;4.53;;
19482;SDS011;9882;51.166;6.992;2023-11-19T08:21:56;14.20;;;3.55;;
19482;SDS011;9882;51.166;6.992;2023-11-19T08:24:25;26.65;;;4.72;;
19482;SDS011;9882;51.166;6.992;2023-11-19T08:26:57;23.30;;;5.10;;
19482;SDS011;9882;51.166;6.992;2023-11-19T08:29:28;30.23;;;5.38;;
19482;SDS011;9882;51.166;6.992;2023-11-19T08:32:06;15.02;;;4.45;;
19482;SDS011;9882;51.166;6.992;2023-11-19T08:34:35;33.10;;;5.15;;
19482;SDS011;9882;51.166;6.992;2023-11-19T08:37:07;19.58;;;4.32;;
19482;SDS011;9882;51.166;6.992;2023-11-19T08:39:50;27.73;;;4.90;;
19482;SDS011;9882;51.166;6.992;2023-11-19T08:42:19;26.55;;;4.47;;
19482;SDS011;9882;51.166;6.992;2023-11-19T08:44:49;17.77;;;4.43;;
19482;SDS011;9882;51.166;6.992;2023-11-19T08:47:21;9.13;;;3.53;;
19482;SDS011;9882;51.166;6.992;2023-11-19T08:49:53;27.67;;;5.35;;
19482;SDS011;9882;51.166;6.992;2023-11-19T08:52:30;29.25;;;5.30;;
19482;SDS011;9882;51.166;6.992;2023-11-19T08:55:01;18.98;;;4.78;;
19482;SDS011;9882;51.166;6.992;2023-11-19T08:57:32;20.48;;;4.35;;
19482;SDS011;9882;51.166;6.992;2023-11-19T09:00:01;25.00;;;4.28;;
19482;SDS011;9882;51.166;6.992;2023-11-19T09:02:35;23.65;;;5.38;;
19482;SDS011;9882;51.166;6.992;2023-11-19T09:05:05;21.05;;;4.45;;
19482;SDS011;9882;51.166;6.992;2023-11-19T09:07:37;17.10;;;4.05;;
19482;SDS011;9882;51.166;6.992;2023-11-19T09:10:06;30.27;;;5.57;;
19482;SDS011;9882;51.166;6.992;2023-11-19T09:12:35;24.90;;;5.38;;
19482;SDS011;9882;51.166;6.992;2023-11-19T09:15:04;22.25;;;4.88;;
19482;SDS011;9882;51.166;6.992;2023-11-19T09:17:34;33.22;;;4.68;;
19482;SDS011;9882;51.166;6.992;2023-11-19T09:20:03;17.85;;;4.68;;
19482;SDS011;9882;51.166;6.992;2023-11-19T09:22:33;22.52;;;4.53;;
19482;SDS011;9882;51.166;6.992;2023-11-19T09:25:04;24.10;;;5.38;;
19482;SDS011;9882;51.166;6.992;2023-11-19T09:27:34;21.88;;;5.05;;
19482;SDS011;9882;51.166;6.992;2023-11-19T09:30:03;29.58;;;5.47;;
19482;SDS011;9882;51.166;6.992;2023-11-19T09:32:35;23.02;;;4.80;;
19482;SDS011;9882;51.166;6.992;2023-11-19T09:35:04;21.42;;;4.57;;
19482;SDS011;9882;51.166;6.992;2023-11-19T09:37:34;26.17;;;5.05;;
19482;SDS011;9882;51.166;6.992;2023-11-19T09:40:05;17.80;;;4.47;;
19482;SDS011;9882;51.166;6.992;2023-11-19T09:42:39;33.08;;;5.05;;
19482;SDS011;9882;51.166;6.992;2023-11-19T09:45:13;25.30;;;4.38;;
19482;SDS011;9882;51.166;6.992;2023-11-19T09:47:44;23.90;;;5.00;;
19482;SDS011;9882;51.166;6.992;2023-11-19T09:50:14;28.70;;;4.85;;
19482;SDS011;9882;51.166;6.992;2023-11-19T09:52:46;27.60;;;4.82;;
19482;SDS011;9882;51.166;6.992;2023-11-19T09:55:16;18.10;;;4.50;;
19482;SDS011;9882;51.166;6.992;2023-11-19T09:57:47;19.08;;;4.30;;
19482;SDS011;9882;51.166;6.992;2023-11-19T10:00:18;33.67;;;4.93;;
19482;SDS011;9882;51.166;6.992;2023-11-19T10:02:48;23.25;;;4.80;;
19482;SDS011;9882;51.166;6.992;2023-11-19T10:05:18;19.77;;;4.30;;
19482;SDS011;9882;51.166;6.992;2023-11-19T10:07:50;46.15;;;4.93;;
19482;SDS011;9882;51.166;6.992;2023-11-19T10:10:20;22.38;;;5.00;;
19482;SDS011;9882;51.166;6.992;2023-11-19T10:12:50;18.63;;;4.72;;
19482;SDS011;9882;51.166;6.992;2023-11-19T10:15:23;21.20;;;4.95;;
19482;SDS011;9882;51.166;6.992;2023-11-19T10:17:54;28.58;;;5.35;;
19482;SDS011;9882;51.166;6.992;2023-11-19T10:20:24;38.72;;;5.13;;
19482;SDS011;9882;51.166;6.992;2023-11-19T10:22:53;34.90;;;4.65;;
19482;SDS011;9882;51.166;6.992;2023-11-19T10:25:29;24.55;;;3.97;;
19482;SDS011;9882;51.166;6.992;2023-11-19T10:27:58;18.85;;;4.07;;
19482;SDS011;9882;51.166;6.992;2023-11-19T10:30:28;26.60;;;4.88;;
19482;SDS011;9882;51.166;6.992;2023-11-19T10:33:04;17.80;;;4.07;;
19482;SDS011;9882;51.166;6.992;2023-11-19T10:35:34;21.55;;;5.03;;
19482;SDS011;9882;51.166;6.992;2023-11-19T10:38:13;16.13;;;4.10;;
19482;SDS011;9882;51.166;6.992;2023-11-19T10:40:44;16.83;;;4.10;;
19482;SDS011;9882;51.166;6.992;2023-11-19T10:43:13;26.30;;;5.00;;
19482;SDS011;9882;51.166;6.992;2023-11-19T10:45:42;16.40;;;4.13;;
19482;SDS011;9882;51.166;6.992;2023-11-19T10:48:14;22.63;;;5.05;;
19482;SDS011;9882;51.166;6.992;2023-11-19T10:50:46;21.00;;;4.60;;
19482;SDS011;9882;51.166;6.992;2023-11-19T10:53:22;20.00;;;4.80;;
19482;SDS011;9882;51.166;6.992;2023-11-19T10:55:54;24.05;;;5.18;;
19482;SDS011;9882;51.166;6.992;2023-11-19T10:58:26;26.67;;;5.13;;
19482;SDS011;9882;51.166;6.992;2023-11-19T11:01:01;29.35;;;5.38;;
19482;SDS011;9882;51.166;6.992;2023-11-19T11:03:35;19.42;;;4.60;;
19482;SDS011;9882;51.166;6.992;2023-11-19T11:06:08;21.38;;;4.28;;
19482;SDS011;9882;51.166;6.992;2023-11-19T11:08:38;28.10;;;4.50;;
19482;SDS011;9882;51.166;6.992;2023-11-19T11:11:09;18.05;;;3.83;;
19482;SDS011;9882;51.166;6.992;2023-11-19T11:13:42;29.20;;;5.00;;
19482;SDS011;9882;51.166;6.992;2023-11-19T11:16:11;21.27;;;4.40;;
19482;SDS011;9882;51.166;6.992;2023-11-19T11:18:42;19.27;;;4.03;;
19482;SDS011;9882;51.166;6.992;2023-11-19T11:21:13;31.88;;;4.10;;
19482;SDS011;9882;51.166;6.992;2023-11-19T11:23:52;29.20;;;5.07;;
19482;SDS011;9882;51.166;6.992;2023-11-19T11:26:53;11.32;;;3.70;;
19482;SDS011;9882;51.166;6.992;2023-11-19T11:29:41;18.88;;;4.13;;
19482;SDS011;9882;51.166;6.992;2023-11-19T11:32:18;16.50;;;4.47;;
19482;SDS011;9882;51.166;6.992;2023-11-19T11:35:03;14.85;;;4.10;;
19482;SDS011;9882;51.166;6.992;2023-11-19T11:37:44;25.80;;;4.53;;
19482;SDS011;9882;51.166;6.992;2023-11-19T11:40:31;21.35;;;4.38;;
19482;SDS011;9882;51.166;6.992;2023-11-19T11:43:01;21.38;;;4.20;;
19482;SDS011;9882;51.166;6.992;2023-11-19T11:45:35;23.80;;;3.97;;
19482;SDS011;9882;51.166;6.992;2023-11-19T11:48:14;11.88;;;3.97;;
19482;SDS011;9882;51.166;6.992;2023-11-19T11:50:50;27.42;;;4.50;;
19482;SDS011;9882;51.166;6.992;2023-11-19T11:53:21;26.02;;;3.85;;
19482;SDS011;9882;51.166;6.992;2023-11-19T11:58:39;16.45;;;3.90;;
19482;SDS011;9882;51.166;6.992;2023-11-19T12:01:10;16.75;;;3.67;;
19482;SDS011;9882;51.166;6.992;2023-11-19T12:03:47;22.30;;;4.05;;
19482;SDS011;9882;51.166;6.992;2023-11-19T12:06:20;24.17;;;4.28;;
19482;SDS011;9882;51.166;6.992;2023-11-19T12:08:49;22.10;;;4.25;;
19482;SDS011;9882;51.166;6.992;2023-11-19T12:11:19;18.40;;;4.10;;
19482;SDS011;9882;51.166;6.992;2023-11-19T12:13:56;18.17;;;4.07;;
19482;SDS011;9882;51.166;6.992;2023-11-19T12:16:26;17.85;;;3.30;;
19482;SDS011;9882;51.166;6.992;2023-11-19T12:18:56;18.83;;;4.32;;
19482;SDS011;9882;51.166;6.992;2023-11-19T12:21:31;17.15;;;4.15;;
19482;SDS011;9882;51.166;6.992;2023-11-19T12:24:00;18.15;;;3.75;;
19482;SDS011;9882;51.166;6.992;2023-11-19T12:26:34;18.90;;;3.63;;
19482;SDS011;9882;51.166;6.992;2023-11-19T12:29:06;15.30;;;3.55;;
19482;SDS011;9882;51.166;6.992;2023-11-19T12:31:35;13.77;;;4.35;;
19482;SDS011;9882;51.166;6.992;2023-11-19T12:34:10;16.33;;;3.30;;
19482;SDS011;9882;51.166;6.992;2023-11-19T12:36:40;10.82;;;2.95;;
19482;SDS011;9882;51.166;6.992;2023-11-19T12:39:11;19.63;;;3.72;;
19482;SDS011;9882;51.166;6.992;2023-11-19T12:41:50;20.50;;;4.18;;
19482;SDS011;9882;51.166;6.992;2023-11-19T12:44:23;20.42;;;3.78;;
19482;SDS011;9882;51.166;6.992;2023-11-19T12:47:01;16.63;;;3.47;;
19482;SDS011;9882;51.166;6.992;2023-11-19T12:49:31;18.13;;;3.78;;
19482;SDS011;9882;51.166;6.992;2023-11-19T12:52:00;16.50;;;3.33;;
19482;SDS011;9882;51.166;6.992;2023-11-19T12:54:32;17.00;;;4.00;;
19482;SDS011;9882;51.166;6.992;2023-11-19T12:57:01;23.98;;;4.57;;
19482;SDS011;9882;51.166;6.992;2023-11-19T12:59:33;19.55;;;3.63;;
19482;SDS011;9882;51.166;6.992;2023-11-19T13:02:01;20.15;;;4.18;;
19482;SDS011;9882;51.166;6.992;2023-11-19T13:04:32;11.05;;;3.40;;
19482;SDS011;9882;51.166;6.992;2023-11-19T13:07:01;12.60;;;3.13;;
19482;SDS011;9882;51.166;6.992;2023-11-19T13:09:32;18.65;;;4.40;;
19482;SDS011;9882;51.166;6.992;2023-11-19T13:12:11;13.77;;;3.95;;
19482;SDS011;9882;51.166;6.992;2023-11-19T13:14:42;25.05;;;4.95;;
19482;SDS011;9882;51.166;6.992;2023-11-19T13:17:13;16.30;;;3.92;;
19482;SDS011;9882;51.166;6.992;2023-11-19T13:19:42;15.55;;;4.18;;
19482;SDS011;9882;51.166;6.992;2023-11-19T13:22:11;15.77;;;3.95;;
19482;SDS011;9882;51.166;6.992;2023-11-19T13:24:39;19.25;;;3.92;;
19482;SDS011;9882;51.166;6.992;2023-11-19T13:27:09;15.93;;;3.75;;
19482;SDS011;9882;51.166;6.992;2023-11-19T13:29:38;16.13;;;3.92;;
19482;SDS011;9882;51.166;6.992;2023-11-19T13:32:08;15.75;;;3.35;;
19482;SDS011;9882;51.166;6.992;2023-11-19T13:34:36;19.17;;;3.35;;
19482;SDS011;9882;51.166;6.992;2023-11-19T13:37:06;20.40;;;4.22;;
19482;SDS011;9882;51.166;6.992;2023-11-19T13:39:35;13.05;;;3.35;;
19482;SDS011;9882;51.166;6.992;2023-11-19T13:42:04;16.35;;;3.40;;
19482;SDS011;9882;51.166;6.992;2023-11-19T13:44:35;16.23;;;3.78;;
19482;SDS011;9882;51.166;6.992;2023-11-19T13:47:04;9.88;;;3.50;;
19482;SDS011;9882;51.166;6.992;2023-11-19T13:49:34;25.67;;;3.72;;
19482;SDS011;9882;51.166;6.992;2023-11-19T13:52:02;7.97;;;3.17;;
19482;SDS011;9882;51.166;6.992;2023-11-19T13:54:31;13.23;;;4.00;;
19482;SDS011;9882;51.166;6.992;2023-11-19T13:56:59;23.52;;;4.07;;
19482;SDS011;9882;51.166;6.992;2023-11-19T13:59:30;14.95;;;3.65;;
19482;SDS011;9882;51.166;6.992;2023-11-19T14:01:59;11.07;;;3.45;;
19482;SDS011;9882;51.166;6.992;2023-11-19T14:04:27;17.05;;;3.60;;
19482;SDS011;9882;51.166;6.992;2023-11-19T14:06:57;11.13;;;3.33;;
19482;SDS011;9882;51.166;6.992;2023-11-19T14:09:26;27.48;;;4.32;;
19482;SDS011;9882;51.166;6.992;2023-11-19T14:11:55;18.50;;;3.80;;
19482;SDS011;9882;51.166;6.992;2023-11-19T14:14:24;16.17;;;3.47;;
19482;SDS011;9882;51.166;6.992;2023-11-19T14:16:52;17.15;;;3.85;;
19482;SDS011;9882;51.166;6.992;2023-11-19T14:19:39;18.25;;;4.40;;
19482;SDS011;9882;51.166;6.992;2023-11-19T14:22:09;19.10;;;4.32;;
19482;SDS011;9882;51.166;6.992;2023-11-19T14:24:38;22.13;;;4.00;;
19482;SDS011;9882;51.166;6.992;2023-11-19T14:27:09;17.98;;;3.67;;
19482;SDS011;9882;51.166;6.992;2023-11-19T14:29:38;17.25;;;4.43;;
19482;SDS011;9882;51.166;6.992;2023-11-19T14:32:07;13.13;;;3.97;;
19482;SDS011;9882;51.166;6.992;2023-11-19T14:34:36;22.60;;;4.43;;
19482;SDS011;9882;51.166;6.992;2023-11-19T14:37:05;16.65;;;4.10;;
19482;SDS011;9882;51.166;6.992;2023-11-19T14:39:34;14.73;;;3.75;;
19482;SDS011;9882;51.166;6.992;2023-11-19T14:42:03;11.07;;;3.63;;
19482;SDS011;9882;51.166;6.992;2023-11-19T14:44:32;19.75;;;4.88;;
19482;SDS011;9882;51.166;6.992;2023-11-19T14:47:01;15.65;;;4.32;;
19482;SDS011;9882;51.166;6.992;2023-11-19T14:49:29;17.92;;;3.70;;
19482;SDS011;9882;51.166;6.992;2023-11-19T14:51:58;14.45;;;3.97;;
19482;SDS011;9882;51.166;6.992;2023-11-19T14:54:29;20.67;;;4.57;;
19482;SDS011;9882;51.166;6.992;2023-11-19T14:56:59;24.65;;;4.45;;
19482;SDS011;9882;51.166;6.992;2023-11-19T14:59:28;23.63;;;4.25;;
19482;SDS011;9882;51.166;6.992;2023-11-19T15:01:57;22.10;;;4.05;;
19482;SDS011;9882;51.166;6.992;2023-11-19T15:04:26;15.20;;;4.82;;
19482;SDS011;9882;51.166;6.992;2023-11-19T15:06:56;23.92;;;4.70;;
19482;SDS011;9882;51.166;6.992;2023-11-19T15:09:25;16.13;;;3.95;;
19482;SDS011;9882;51.166;6.992;2023-11-19T15:11:54;20.20;;;3.95;;
19482;SDS011;9882;51.166;6.992;2023-11-19T15:14:25;10.32;;;3.90;;